KLGC/LGC METAR and TAF weather

Enter ICAO airport designator
Station Type Date Time Source
KLGC METAR 2022/11/26 09:35 UTC NOAA

KLGC 260935Z AUTO 00000KT 1/4SM FG OVC002 07/06 A3012 RMK AO2 T00650059


Station Type Date Time Source
KLGC Decoded METAR 2022/11/26 09:35 UTC NOAA

La Grange, Callaway Airport, GA, United States (KLGC) 33-00-32N 085-04-21W
Nov 26, 2022 - 04:35 AM EST / 2022.11.26 0935 UTC
Wind: Calm:0
Visibility: 1/4 mile(s):0
Sky conditions: overcast
Weather: fog
Temperature: 43.7 F (6.5 C)
Dew Point: 42.6 F (5.9 C)
Relative Humidity: 95%
Pressure (altimeter): 30.12 in. Hg (1019 hPa)
ob: KLGC 260935Z AUTO 00000KT 1/4SM FG OVC002 07/06 A3012 RMK AO2 T00650059
cycle: 9

Station Type Date Time Source
KLGC TAF UTC NOAA

Error!

Example: see airport list